Terminal Aerodrome Forecast
Issued by NWS Louisville, KY

Home | Current Version | Previous Version | Text Only | Print | Product List | Glossary On
Versions: 1 2 3 4 5 6 7 8 9 10 11 12 13 14 15
412
FTUS43 KLMK 231120
TAFBWG
TAF
KBWG 231120Z 2312/2412 VRB04KT P6SM OVC120
     FM240500 22003KT P6SM VCSH OVC050=

USA.gov is the U.S. government's official web portal to all federal, state and local government web resources and services.